• Join FlightAware (Why Join?)
  • Login
  • US Flag GB Flag 
00:17 EDT


 

Airport Tracker/Info


-or-


 

Live Flight TrackerFlight Track Log ✈ UAL3744 ✈ 27-Apr-2013 ✈ KSYR - KIAD

Flight Track Log - Related Links

Times and Time Zones

All times are in EDT time to prevent confusion due to time zone crossing. See the UAL3744 flight status page for this flight to view local times or setup timezone preferences in your user account.

Time Position Orientation Groundspeed Altitude Reporting Facility
EDT Latitude Longitude Course Direction KTS MPH feet Rate Location/Type
14:31 43.1089 -76.0922 209° Southwest 138 159 1,400  Level Boston Center
14:32 43.0858 -76.0283 116° Southeast 211 243 4,200 2,400 Climbing Boston Center
14:33 43.0383 -76.0822 220° Southwest 241 277 6,600 2,040 Climbing Boston Center
14:34 42.7271 -76.5234 210° Southwest  Level FlightAware Approximate
14:35 42.6286 -76.6107 200° South  Level FlightAware Approximate
14:35 42.9578 -76.2139 230° Southwest 275 316 10,000  Level New York Center
14:36 42.5171 -76.6830 209° Southwest  Level FlightAware Approximate
14:36 42.9092 -76.3258 239° Southwest 316 364 10,000  Level New York Center
14:37 42.8517 -76.4425 236° Southwest 351 404 10,800 1,380 Climbing New York Center
14:38 42.7647 -76.5167 212° Southwest 368 423 12,800 2,040 Climbing New York Center
14:39 42.6761 -76.5850 210° Southwest 368 423 14,900 1,980 Climbing New York Center
14:40 42.5878 -76.6503 209° Southwest 368 423 16,900 1,020 Climbing New York Center
14:41 42.4947 -76.7206 209° Southwest 379 436 17,000 480 Climbing New York Center
14:42 42.3994 -76.7933 209° Southwest 393 452 17,900 1,320 Climbing New York Center
14:43 42.3000 -76.8686 209° Southwest 404 465 19,600 1,860 Climbing New York Center
14:44 42.2000 -76.9461 210° Southwest 415 478 21,600 1,980 Climbing New York Center
14:45 42.1006 -77.0206 209° Southwest 415 478 23,600 1,140 Climbing New York Center
14:46 41.9981 -77.1058 212° Southwest 425 489 24,000 180 Climbing New York Center
14:47 41.8936 -77.1906 211° Southwest 439 505 24,000  Level New York Center
14:48 41.7886 -77.2806 213° Southwest 444 511 24,000  Level New York Center
14:49 41.6819 -77.3675 211° Southwest 449 517 24,000  Level New York Center
14:50 41.5747 -77.4567 212° Southwest 454 522 24,000  Level New York Center
14:51 41.4642 -77.5344 208° Southwest 454 522 24,000  Level New York Center
14:52 41.3297 -77.5181 175° South 444 511 24,000  Level New York Center
14:53 41.1958 -77.4908 171° South 466 536 24,000  Level New York Center
14:54 41.0617 -77.4694 173° South 482 555 24,000  Level New York Center
14:55 40.9256 -77.4422 171° South 488 562 24,000 -240 Level New York Center
14:56 40.7894 -77.4181 172° South 498 573 23,600 -960 Descending New York Center
14:57 40.6572 -77.3969 173° South 498 573 22,100 -1,500 Descending New York Center
14:58 40.5292 -77.3739 172° South 488 562 20,600 -1,620 Descending New York Center
14:59 40.3908 -77.3497 172° South 468 539 18,900 -1,200 Descending New York Center
15:01 40.1333 -77.3000 172° South 419 482 17,000 -1,320 Descending Potomac TRACON
15:02 40.0167 -77.2833 174° South 414 476 15,000 -1,920 Descending Potomac TRACON
15:03 39.9167 -77.2833 180° South 400 460 13,200 -1,740 Descending Potomac TRACON
15:04 39.8000 -77.3000 186° South 381 438 11,600 -1,560 Descending Potomac TRACON
15:05 39.7167 -77.3167 189° South 372 428 10,300 -1,080 Descending Potomac TRACON
15:06 39.6167 -77.3500 194° South 290 334 9,500 -1,200 Descending Potomac TRACON
15:07 39.5500 -77.3833 201° Southwest 287 330 7,900 -1,680 Descending Potomac TRACON
15:08 39.4833 -77.4167 201° Southwest 273 314 6,300 -1,620 Descending Potomac TRACON
15:09 39.4000 -77.4333 189° South 257 296 4,500 -1,140 Descending Potomac TRACON
15:10 39.3333 -77.4333 180° South 251 289 4,000 -300 Descending Potomac TRACON
15:11 39.2667 -77.4333 180° South 255 293 4,000  Level Potomac TRACON
15:12 39.2000 -77.4333 180° South 247 284 4,000 -60 Level Potomac TRACON
15:13 39.1333 -77.4333 180° South 194 223 3,900 -600 Descending Potomac TRACON
15:14 39.0833 -77.4333 180° South 176 203 2,900 -1,020 Descending Potomac TRACON